createdAt,value
2019-02-09T00:00:53.206Z,95498.98
2019-02-09T00:03:19.240Z,95498.48
2019-02-09T00:05:45.240Z,95498.56
2019-02-09T00:08:11.273Z,95500.01
2019-02-09T00:10:37.285Z,95496.84
2019-02-09T00:13:03.284Z,95493.23
2019-02-09T00:15:29.723Z,95494.69
2019-02-09T00:17:57.997Z,95490.69
2019-02-09T00:20:28.689Z,95497.34
2019-02-09T00:22:58.933Z,95496.02
2019-02-09T00:25:26.050Z,95497.42
2019-02-09T00:27:52.102Z,95491.19
2019-02-09T00:30:18.137Z,95489.05
2019-02-09T00:32:44.147Z,95489.05
2019-02-09T00:35:10.135Z,95490.05
2019-02-09T00:37:36.171Z,95485.14
2019-02-09T00:40:02.205Z,95486.88
2019-02-09T00:42:28.198Z,95482.47
2019-02-09T00:44:54.240Z,95478.48
2019-02-09T00:47:20.236Z,95478.59
2019-02-09T00:49:46.274Z,95481.14
2019-02-09T00:52:12.305Z,95473.27
2019-02-09T00:54:38.302Z,95477.64
2019-02-09T00:57:04.299Z,95473.15
2019-02-09T00:59:30.336Z,95470.59
2019-02-09T01:01:56.372Z,95468.94
2019-02-09T01:04:22.365Z,95472.31
2019-02-09T01:06:48.400Z,95473.65
2019-02-09T01:09:14.416Z,95470.91
2019-02-09T01:11:40.412Z,95465.27
2019-02-09T01:14:06.463Z,95461.36
2019-02-09T01:16:32.459Z,95459.11
2019-02-09T01:18:58.461Z,95462.69
2019-02-09T01:21:24.500Z,95458.28
2019-02-09T01:23:50.496Z,95461.86
2019-02-09T01:26:16.492Z,95456.95
2019-02-09T01:28:42.528Z,95454.39
2019-02-09T01:31:08.563Z,95443.10
2019-02-09T01:33:34.565Z,95448.05
2019-02-09T01:36:00.604Z,95445.88
2019-02-09T01:38:26.599Z,95443.74
2019-02-09T01:40:52.623Z,95443.63
2019-02-09T01:43:18.657Z,95440.66
2019-02-09T01:45:44.693Z,95435.23
2019-02-09T01:48:10.695Z,95437.89
2019-02-09T01:50:36.722Z,95437.58
2019-02-09T01:53:02.757Z,95441.50
2019-02-09T01:55:28.765Z,95437.17
2019-02-09T01:57:54.801Z,95436.25
2019-02-09T02:00:20.795Z,95432.38
2019-02-09T02:02:46.787Z,95438.50
2019-02-09T02:05:12.822Z,95436.75
2019-02-09T02:07:38.823Z,95435.84
2019-02-09T02:10:04.816Z,95437.58
2019-02-09T02:12:30.847Z,95434.20
2019-02-09T02:14:56.850Z,95430.63
2019-02-09T02:17:22.850Z,95435.53
2019-02-09T02:19:48.886Z,95434.62
2019-02-09T02:22:14.880Z,95421.35
2019-02-09T02:24:40.922Z,95431.53
2019-02-09T02:27:06.957Z,95438.69
2019-02-09T02:29:32.970Z,95437.36
2019-02-09T02:31:58.981Z,95436.45
2019-02-09T02:34:25.028Z,95431.62
2019-02-09T02:36:51.025Z,95434.28
2019-02-09T02:39:17.020Z,95436.03
2019-02-09T02:41:43.053Z,95438.28
2019-02-09T02:44:09.087Z,95437.47
2019-02-09T02:46:35.082Z,95440.52
2019-02-09T02:49:01.114Z,95439.61
2019-02-09T02:51:27.113Z,95441.47
2019-02-09T02:53:53.142Z,95443.30
2019-02-09T02:56:19.179Z,95442.38
2019-02-09T02:58:45.175Z,95445.84
2019-02-09T03:01:11.209Z,95445.95
2019-02-09T03:03:37.244Z,95443.30
2019-02-09T03:06:03.277Z,95449.53
2019-02-09T03:08:29.274Z,95445.95
2019-02-09T03:10:55.302Z,95449.12
2019-02-09T03:13:21.330Z,95448.20
2019-02-09T03:15:47.338Z,95444.94
2019-02-09T03:18:13.339Z,95444.70
2019-02-09T03:20:39.370Z,95448.51
2019-02-09T03:23:05.398Z,95444.94
2019-02-09T03:25:31.437Z,95449.53
2019-02-09T03:27:57.436Z,95447.79
2019-02-09T03:30:23.445Z,95448.20
2019-02-09T03:32:49.474Z,95447.30
2019-02-09T03:35:15.472Z,95452.39
2019-02-09T03:37:41.463Z,95449.23
2019-02-09T03:40:07.515Z,95445.23
2019-02-09T03:42:33.510Z,95451.89
2019-02-09T03:44:59.498Z,95450.56
2019-02-09T03:47:25.537Z,95452.39
2019-02-09T03:49:51.529Z,95449.31
2019-02-09T03:52:17.536Z,95452.89
2019-02-09T03:54:43.566Z,95453.30
2019-02-09T03:57:09.559Z,95450.22
2019-02-09T03:59:35.613Z,95453.00
2019-02-09T04:02:01.633Z,95449.00
2019-02-09T04:04:27.623Z,95449.50
2019-02-09T04:06:53.676Z,95450.41
2019-02-09T04:09:19.687Z,95450.34
2019-02-09T04:11:45.683Z,95447.67
2019-02-09T04:14:11.684Z,95451.25
2019-02-09T04:16:37.724Z,95451.25
2019-02-09T04:19:03.723Z,95449.92
2019-02-09T04:21:29.718Z,95450.84
2019-02-09T04:23:55.752Z,95449.92
2019-02-09T04:26:21.770Z,95450.84
2019-02-09T04:28:47.765Z,95453.61
2019-02-09T04:31:13.801Z,95450.95
2019-02-09T04:33:39.832Z,95448.36
2019-02-09T04:36:05.829Z,95453.19
2019-02-09T04:38:31.840Z,95454.11
2019-02-09T04:40:57.872Z,95447.95
2019-02-09T04:43:23.864Z,95451.86
2019-02-09T04:45:49.895Z,95447.03
2019-02-09T04:48:15.926Z,95455.44
2019-02-09T04:50:41.924Z,95450.11
2019-02-09T04:53:07.965Z,95449.20
2019-02-09T04:55:33.965Z,95450.61
2019-02-09T04:57:59.959Z,95453.69
2019-02-09T05:00:25.997Z,95447.56
2019-02-09T05:02:51.991Z,95455.94
2019-02-09T05:05:18.022Z,95449.47
2019-02-09T05:07:44.088Z,95451.22
2019-02-09T05:10:10.097Z,95448.97
2019-02-09T05:12:36.091Z,95453.08
2019-02-09T05:15:02.129Z,95454.80
2019-02-09T05:17:28.159Z,95453.88
2019-02-09T05:19:54.161Z,95447.75
2019-02-09T05:22:20.196Z,95454.41
2019-02-09T05:24:46.232Z,95457.45
2019-02-09T05:27:12.227Z,95453.08
2019-02-09T05:29:38.233Z,95455.33
2019-02-09T05:32:04.267Z,95459.73
2019-02-09T05:34:30.258Z,95455.73
2019-02-09T05:36:56.291Z,95454.48
2019-02-09T05:39:22.324Z,95453.27
2019-02-09T05:41:48.323Z,95456.73
2019-02-09T05:44:14.354Z,95461.14
2019-02-09T05:46:40.393Z,95465.14
2019-02-09T05:49:06.382Z,95458.98
2019-02-09T05:51:32.412Z,95459.51
2019-02-09T05:53:58.516Z,95466.16
2019-02-09T05:56:24.506Z,95466.66
2019-02-09T05:58:50.544Z,95473.81
2019-02-09T06:01:16.538Z,95471.68
2019-02-09T06:03:42.573Z,95474.34
2019-02-09T06:06:08.610Z,95478.34
2019-02-09T06:08:34.612Z,95475.25
2019-02-09T06:11:00.610Z,95478.95
2019-02-09T06:13:26.786Z,95479.75
2019-02-09T06:15:52.797Z,95474.84
2019-02-09T06:18:18.788Z,95479.33
2019-02-09T06:20:44.818Z,95477.00
2019-02-09T06:23:10.816Z,95477.31
2019-02-09T06:25:36.860Z,95476.59
2019-02-09T06:28:02.897Z,95470.77
2019-02-09T06:30:28.926Z,95471.27
2019-02-09T06:32:54.928Z,95476.17
2019-02-09T06:35:20.962Z,95477.81
2019-02-09T06:37:46.971Z,95478.95
2019-02-09T06:40:12.967Z,95477.12
2019-02-09T06:42:38.998Z,95478.64
2019-02-09T06:45:04.995Z,95484.69
2019-02-09T06:47:30.991Z,95485.61
2019-02-09T06:49:57.071Z,95482.94
2019-02-09T06:52:25.547Z,95478.64
2019-02-09T06:54:51.543Z,95481.11
2019-02-09T06:57:17.579Z,95472.70
2019-02-09T06:59:43.624Z,95478.45
2019-02-09T07:02:09.620Z,95483.70
2019-02-09T07:04:35.616Z,95480.62
2019-02-09T07:07:01.669Z,95476.52
2019-02-09T07:09:27.660Z,95478.14
2019-02-09T07:11:53.658Z,95482.44
2019-02-09T07:14:19.702Z,95482.14
2019-02-09T07:16:45.697Z,95479.97
2019-02-09T07:19:11.691Z,95478.75
2019-02-09T07:21:37.843Z,95479.55
2019-02-09T07:24:03.835Z,95483.97
2019-02-09T07:26:29.870Z,95477.42
2019-02-09T07:28:55.881Z,95478.34
2019-02-09T07:31:21.883Z,95471.27
2019-02-09T07:33:47.913Z,95478.83
2019-02-09T07:36:13.963Z,95485.48
2019-02-09T07:38:39.963Z,95483.73
2019-02-09T07:41:05.966Z,95485.48
2019-02-09T07:43:32.008Z,95486.09
2019-02-09T07:45:58.004Z,95481.61
2019-02-09T07:48:24.163Z,95482.75
2019-02-09T07:50:50.080Z,95485.60
2019-02-09T07:53:16.138Z,95482.33
2019-02-09T07:55:42.173Z,95483.24
2019-02-09T07:58:08.238Z,95484.08
2019-02-09T08:00:34.244Z,95487.95
2019-02-09T08:03:00.238Z,95487.13
2019-02-09T08:05:26.279Z,95486.94
2019-02-09T08:07:52.279Z,95486.86
2019-02-09T08:10:18.270Z,95486.44
2019-02-09T08:12:44.303Z,95482.44
2019-02-09T08:15:10.303Z,95479.78
2019-02-09T08:17:36.298Z,95483.28
2019-02-09T08:20:02.339Z,95476.28
2019-02-09T08:22:28.330Z,95471.07
2019-02-09T08:24:54.322Z,95475.10
2019-02-09T08:27:23.602Z,95474.37
2019-02-09T08:29:46.347Z,95473.44
2019-02-09T08:32:13.139Z,95474.57
2019-02-09T08:34:38.453Z,95474.52
2019-02-09T08:37:04.449Z,95477.61
2019-02-09T08:39:30.449Z,95473.00
2019-02-09T08:41:56.486Z,95475.33
2019-02-09T08:44:22.517Z,95473.42
2019-02-09T08:46:48.542Z,95476.58
2019-02-09T08:49:14.579Z,95479.70
2019-02-09T08:51:40.608Z,95478.36
2019-02-09T08:54:06.603Z,95483.08
2019-02-09T08:56:32.639Z,95479.20
2019-02-09T08:58:58.671Z,95483.12
2019-02-09T09:01:24.671Z,95482.92
2019-02-09T09:03:50.704Z,95488.55
2019-02-09T09:06:16.700Z,95481.59
2019-02-09T09:08:42.696Z,95484.25
2019-02-09T09:11:08.748Z,95478.89
2019-02-09T09:13:34.794Z,95484.64
2019-02-09T09:16:00.848Z,95481.06
2019-02-09T09:18:26.846Z,95485.14
2019-02-09T09:20:52.883Z,95483.50
2019-02-09T09:23:18.884Z,95478.67
2019-02-09T09:25:44.886Z,95481.75
2019-02-09T09:28:10.925Z,95480.00
2019-02-09T09:30:36.963Z,95477.84
2019-02-09T09:33:03.128Z,95475.17
2019-02-09T09:35:29.167Z,95478.36
2019-02-09T09:37:55.165Z,95481.83
2019-02-09T09:40:21.182Z,95479.77
2019-02-09T09:42:47.402Z,95481.03
2019-02-09T09:45:13.394Z,95478.97
2019-02-09T09:47:39.927Z,95473.23
2019-02-09T09:50:06.234Z,95472.39
2019-02-09T09:52:32.256Z,95468.48
2019-02-09T09:54:58.623Z,95462.66
2019-02-09T09:57:25.056Z,95465.44
2019-02-09T09:59:51.760Z,95460.11
2019-02-09T10:02:21.501Z,95464.48
2019-02-09T10:04:49.829Z,95454.67
2019-02-09T10:07:19.236Z,95456.11
2019-02-09T10:09:45.279Z,95463.27
2019-02-09T10:12:12.019Z,95455.16
2019-02-09T10:14:39.394Z,95455.59
2019-02-09T10:17:05.606Z,95458.59
2019-02-09T10:19:31.806Z,95453.98
2019-02-09T10:21:57.736Z,95458.01
2019-02-09T10:24:23.931Z,95451.38
2019-02-09T10:26:49.970Z,95448.30
2019-02-09T10:29:15.978Z,95444.61
2019-02-09T10:31:41.981Z,95443.92
2019-02-09T10:34:08.016Z,95440.23
2019-02-09T10:36:34.018Z,95442.81
2019-02-09T10:39:00.019Z,95436.16
2019-02-09T10:41:26.059Z,95434.82
2019-02-09T10:43:52.059Z,95435.73
2019-02-09T10:46:18.095Z,95439.40
2019-02-09T10:48:44.135Z,95436.34
2019-02-09T10:51:10.130Z,95435.20
2019-02-09T10:53:36.159Z,95436.66
2019-02-09T10:56:02.200Z,95432.97
2019-02-09T10:58:28.199Z,95432.66
2019-02-09T11:00:54.255Z,95432.55
2019-02-09T11:03:20.312Z,95423.64
2019-02-09T11:05:46.308Z,95420.78
2019-02-09T11:08:12.308Z,95418.04
2019-02-09T11:10:38.367Z,95417.43
2019-02-09T11:13:04.351Z,95414.66
2019-02-09T11:15:30.351Z,95408.83
2019-02-09T11:17:56.400Z,95404.33
2019-02-09T11:20:22.395Z,95402.20
2019-02-09T11:22:48.407Z,95404.86
2019-02-09T11:25:14.439Z,95408.86
2019-02-09T11:27:40.475Z,95404.78
2019-02-09T11:30:06.472Z,95404.66
2019-02-09T11:32:32.509Z,95400.59
2019-02-09T11:34:58.502Z,95403.14
2019-02-09T11:37:24.494Z,95398.34
2019-02-09T11:39:50.536Z,95396.92
2019-02-09T11:42:16.530Z,95383.27
2019-02-09T11:44:42.526Z,95381.02
2019-02-09T11:47:08.564Z,95378.58
2019-02-09T11:49:34.569Z,95379.30
2019-02-09T11:52:00.601Z,95371.94
2019-02-09T11:54:26.618Z,95367.53
2019-02-09T11:56:52.658Z,95365.39
2019-02-09T11:59:18.689Z,95361.09
2019-02-09T12:01:44.693Z,95365.39
2019-02-09T12:04:10.732Z,95355.14
2019-02-09T12:06:36.772Z,95354.95
2019-02-09T12:09:02.811Z,95360.78
2019-02-09T12:11:28.831Z,95350.45
2019-02-09T12:13:55.578Z,95347.89
2019-02-09T12:16:20.879Z,95350.36
2019-02-09T12:18:46.928Z,95342.48
2019-02-09T12:21:12.948Z,95341.56
2019-02-09T12:23:38.942Z,95332.23
2019-02-09T12:26:04.974Z,95334.90
2019-02-09T12:28:30.973Z,95336.86
2019-02-09T12:30:57.019Z,95333.28
2019-02-09T12:33:23.554Z,95331.12
2019-02-09T12:35:49.120Z,95327.84
2019-02-09T12:38:15.106Z,95329.59
2019-02-09T12:40:41.105Z,95320.68
2019-02-09T12:43:07.144Z,95322.73
2019-02-09T12:45:33.146Z,95316.48
2019-02-09T12:47:59.512Z,95319.25
2019-02-09T12:50:25.579Z,95318.35
2019-02-09T12:52:51.593Z,95313.14
2019-02-09T12:55:18.391Z,95317.13
2019-02-09T12:57:44.423Z,95317.12
2019-02-09T13:00:10.422Z,95315.08
2019-02-09T13:02:36.415Z,95314.16
2019-02-09T13:05:02.457Z,95303.41
2019-02-09T13:07:28.454Z,95312.02
2019-02-09T13:09:54.457Z,95309.06
2019-02-09T13:12:20.499Z,95306.89
2019-02-09T13:14:46.572Z,95307.81
2019-02-09T13:17:12.562Z,95308.06
2019-02-09T13:19:38.958Z,95305.73
2019-02-09T13:22:04.999Z,95302.03
2019-02-09T13:24:30.997Z,95294.95
2019-02-09T13:26:57.211Z,95297.53
2019-02-09T13:29:23.549Z,95302.25
2019-02-09T13:31:49.688Z,95295.17
2019-02-09T13:34:15.715Z,95294.67
2019-02-09T13:36:41.753Z,95288.30
2019-02-09T13:39:10.059Z,95284.94
2019-02-09T13:41:36.104Z,95283.60
2019-02-09T13:44:02.088Z,95283.91
2019-02-09T13:46:28.290Z,95282.16
2019-02-09T13:48:54.328Z,95289.12
2019-02-09T13:51:22.671Z,95282.27
2019-02-09T13:53:49.298Z,95279.20
2019-02-09T13:56:17.782Z,95277.95
2019-02-09T13:58:44.507Z,95273.95
2019-02-09T14:01:11.081Z,95278.47
2019-02-09T14:06:12.537Z,95274.05
2019-02-09T14:08:38.788Z,95272.34
2019-02-09T14:11:05.279Z,95269.26
2019-02-09T14:16:08.224Z,95277.75
2019-02-09T14:18:28.010Z,95276.42
2019-02-09T14:20:54.018Z,95270.59
2019-02-09T14:23:20.043Z,95278.39
2019-02-09T14:25:46.043Z,95282.25
2019-02-09T14:28:14.283Z,95278.67
2019-02-09T14:30:40.376Z,95275.00
2019-02-09T14:33:06.371Z,95280.54
2019-02-09T14:35:32.470Z,95273.34
2019-02-09T14:37:58.473Z,95272.01
2019-02-09T14:40:24.510Z,95271.41
2019-02-09T14:42:50.523Z,95275.29
2019-02-09T14:45:16.522Z,95277.88
2019-02-09T14:47:42.553Z,95273.95
2019-02-09T14:50:11.267Z,95272.22
2019-02-09T14:52:34.670Z,95279.94
2019-02-09T14:55:00.707Z,95277.88
2019-02-09T14:57:26.705Z,95274.89
2019-02-09T14:59:52.707Z,95281.34
2019-02-09T15:02:18.809Z,95270.08
2019-02-09T15:04:44.809Z,95277.88
2019-02-09T15:07:10.853Z,95271.31
2019-02-09T15:09:36.954Z,95269.47
2019-02-09T15:12:03.100Z,95274.05
2019-02-09T15:14:29.096Z,95273.67
2019-02-09T15:16:55.143Z,95268.63
2019-02-09T15:19:21.181Z,95268.21
2019-02-09T15:21:47.204Z,95276.34
2019-02-09T15:24:13.230Z,95268.83
2019-02-09T15:26:39.280Z,95268.81
2019-02-09T15:29:05.419Z,95269.43
2019-02-09T15:31:31.410Z,95271.80
2019-02-09T15:33:57.569Z,95273.74
2019-02-09T15:36:23.605Z,95271.59
2019-02-09T15:38:49.899Z,95277.74
2019-02-09T15:41:16.209Z,95276.61
2019-02-09T15:43:42.267Z,95281.69
2019-02-09T15:46:08.315Z,95284.44
2019-02-09T15:48:34.387Z,95282.61
2019-02-09T15:51:00.390Z,95294.27
2019-02-09T15:53:26.580Z,95298.69
2019-02-09T15:55:52.493Z,95299.02
2019-02-09T15:58:18.486Z,95310.58
2019-02-09T16:00:44.488Z,95316.13
2019-02-09T16:03:10.674Z,95313.33
2019-02-09T16:05:36.705Z,95319.07
2019-02-09T16:08:06.479Z,95329.02
2019-02-09T16:10:32.484Z,95332.09
2019-02-09T16:12:58.521Z,95321.44
2019-02-09T16:15:24.585Z,95333.92
2019-02-09T16:17:50.595Z,95329.93
2019-02-09T16:20:16.652Z,95332.92
2019-02-09T16:22:43.012Z,95333.75
2019-02-09T16:25:09.010Z,95337.86
2019-02-09T16:27:35.115Z,95327.59
2019-02-09T16:30:01.595Z,95331.78
2019-02-09T16:32:27.614Z,95330.37
2019-02-09T16:34:55.833Z,95336.11
2019-02-09T16:37:21.908Z,95338.99
2019-02-09T16:39:47.953Z,95340.83
2019-02-09T16:42:13.997Z,95340.41
2019-02-09T16:44:39.993Z,95327.59
2019-02-09T16:47:06.000Z,95334.25
2019-02-09T16:49:32.036Z,95338.45
2019-02-09T16:51:58.076Z,95339.70
2019-02-09T16:54:24.083Z,95343.78
2019-02-09T16:56:50.285Z,95336.92
2019-02-09T16:59:16.352Z,95334.34
2019-02-09T17:01:42.405Z,95329.02
2019-02-09T17:04:08.404Z,95335.38
2019-02-09T17:06:34.412Z,95343.25
2019-02-09T17:09:10.739Z,95338.54
2019-02-09T17:11:36.747Z,95338.76
2019-02-09T17:14:04.019Z,95338.04
2019-02-09T17:16:30.836Z,95340.38
2019-02-09T17:18:58.316Z,95337.52
2019-02-09T17:21:24.461Z,95337.60
2019-02-09T17:23:51.795Z,95336.39
2019-02-09T17:26:20.185Z,95334.02
2019-02-09T17:28:47.376Z,95337.30
2019-02-09T17:31:14.501Z,95338.02
2019-02-09T17:33:41.724Z,95338.72
2019-02-09T17:36:11.219Z,95348.05
2019-02-09T17:38:42.114Z,95348.46
2019-02-09T17:41:09.037Z,95348.58
2019-02-09T17:43:36.080Z,95355.31
2019-02-09T17:46:02.704Z,95349.27
2019-02-09T17:48:29.343Z,95353.35
2019-02-09T17:50:55.420Z,95357.27
2019-02-09T17:53:21.893Z,95354.08
2019-02-09T17:55:48.269Z,95363.30
2019-02-09T17:58:14.312Z,95370.06
2019-02-09T18:00:40.712Z,95371.90
2019-02-09T18:03:06.939Z,95368.02
2019-02-09T18:05:34.773Z,95371.18
2019-02-09T18:08:00.007Z,95377.92
2019-02-09T18:10:26.389Z,95375.67
2019-02-09T18:12:52.772Z,95376.20
2019-02-09T18:15:19.197Z,95379.67
2019-02-09T18:17:46.607Z,95383.59
2019-02-09T18:20:12.929Z,95388.39
2019-02-09T18:22:39.518Z,95388.39
2019-02-09T18:25:05.666Z,95386.14
2019-02-09T18:27:31.974Z,95390.77
2019-02-09T18:29:59.007Z,95389.33
2019-02-09T18:32:25.523Z,95382.98
2019-02-09T18:34:56.198Z,95391.80
2019-02-09T18:37:18.057Z,95389.44
2019-02-09T18:39:44.399Z,95390.05
2019-02-09T18:42:11.092Z,95394.85
2019-02-09T18:44:37.252Z,95391.47
2019-02-09T18:47:03.453Z,95397.71
2019-02-09T18:49:29.538Z,95393.63
2019-02-09T18:51:56.213Z,95393.11
2019-02-09T18:54:22.446Z,95399.58
2019-02-09T18:56:48.984Z,95405.41
2019-02-09T18:59:17.298Z,95407.23
2019-02-09T19:01:43.787Z,95403.23
2019-02-09T19:04:10.335Z,95410.92
2019-02-09T19:06:36.872Z,95407.84
2019-02-09T19:09:03.710Z,95405.18
2019-02-09T19:11:30.434Z,95403.02
2019-02-09T19:13:57.320Z,95401.30
2019-02-09T19:16:23.327Z,95408.05
2019-02-09T19:18:49.322Z,95406.71
2019-02-09T19:21:15.355Z,95408.95
2019-02-09T19:23:41.351Z,95399.75
2019-02-09T19:26:07.342Z,95404.16
2019-02-09T19:28:33.377Z,95402.49
2019-02-09T19:30:59.379Z,95398.08
2019-02-09T19:33:25.407Z,95397.38
2019-02-09T19:35:51.555Z,95394.22
2019-02-09T19:38:17.552Z,95402.30
2019-02-09T19:40:43.581Z,95398.91
2019-02-09T19:43:09.802Z,95396.05
2019-02-09T19:45:35.801Z,95396.17
2019-02-09T19:48:01.798Z,95400.66
2019-02-09T19:50:28.018Z,95397.70
2019-02-09T19:52:54.216Z,95401.69
2019-02-09T19:55:20.211Z,95404.73
2019-02-09T19:57:46.253Z,95399.52
2019-02-09T20:00:12.262Z,95401.77
2019-02-09T20:02:41.130Z,95403.11
2019-02-09T20:05:07.219Z,95398.50
2019-02-09T20:07:33.220Z,95403.41
2019-02-09T20:09:59.226Z,95404.36
2019-02-09T20:12:25.286Z,95406.91
2019-02-09T20:14:51.295Z,95412.34
2019-02-09T20:17:17.292Z,95406.63
2019-02-09T20:19:43.326Z,95410.65
2019-02-09T20:22:09.366Z,95416.67
2019-02-09T20:24:35.366Z,95421.09
2019-02-09T20:27:01.415Z,95423.64
2019-02-09T20:29:27.467Z,95422.92
2019-02-09T20:31:53.495Z,95428.05
2019-02-09T20:34:19.543Z,95419.14
2019-02-09T20:36:45.539Z,95416.56
2019-02-09T20:39:11.537Z,95420.36
2019-02-09T20:41:37.577Z,95430.72
2019-02-09T20:44:03.571Z,95427.55
2019-02-09T20:46:29.622Z,95430.63
2019-02-09T20:48:55.679Z,95439.57
2019-02-09T20:51:21.675Z,95438.32
2019-02-09T20:53:47.667Z,95442.23
2019-02-09T20:56:13.704Z,95445.70
2019-02-09T20:58:39.716Z,95451.87
2019-02-09T21:01:05.725Z,95456.48
2019-02-09T21:03:31.759Z,95455.86
2019-02-09T21:05:57.756Z,95470.10
2019-02-09T21:08:23.752Z,95470.41
2019-02-09T21:10:49.783Z,95457.89
2019-02-09T21:13:15.831Z,95462.64
2019-02-09T21:15:41.937Z,95455.03
2019-02-09T21:18:07.936Z,95460.89
2019-02-09T21:20:34.229Z,95458.03
2019-02-09T21:23:00.245Z,95459.55
2019-02-09T21:25:26.275Z,95462.72
2019-02-09T21:27:52.319Z,95461.47
2019-02-09T21:30:18.310Z,95461.08
2019-02-09T21:32:44.307Z,95464.77
2019-02-09T21:35:10.559Z,95470.02
2019-02-09T21:37:36.696Z,95463.75
2019-02-09T21:40:02.692Z,95467.36
2019-02-09T21:42:28.790Z,95473.60
2019-02-09T21:44:54.785Z,95474.30
2019-02-09T21:47:20.788Z,95472.87
2019-02-09T21:49:46.823Z,95467.14
2019-02-09T21:52:12.857Z,95466.72
2019-02-09T21:54:38.864Z,95458.72
2019-02-09T21:57:04.898Z,95460.97
2019-02-09T21:59:30.896Z,95455.14
2019-02-09T22:01:56.902Z,95448.98
2019-02-09T22:04:22.966Z,95437.82
2019-02-09T22:06:48.966Z,95440.38
2019-02-09T22:09:14.961Z,95428.72
2019-02-09T22:11:41.045Z,95444.37
2019-02-09T22:14:07.026Z,95442.77
2019-02-09T22:16:33.647Z,95435.95
2019-02-09T22:19:00.398Z,95439.27
2019-02-09T22:21:26.626Z,95433.44
2019-02-09T22:23:52.950Z,95431.69
2019-02-09T22:26:19.145Z,95431.47
2019-02-09T22:28:48.175Z,95424.91
2019-02-09T22:31:21.750Z,95423.66
2019-02-09T22:33:45.930Z,95425.91
2019-02-09T22:36:11.966Z,95421.11
2019-02-09T22:38:38.009Z,95421.50
2019-02-09T22:41:04.002Z,95429.49
2019-02-09T22:43:30.019Z,95420.28
2019-02-09T22:45:56.056Z,95421.61
2019-02-09T22:48:22.057Z,95416.70
2019-02-09T22:50:48.058Z,95426.02
2019-02-09T22:53:14.092Z,95436.88
2019-02-09T22:55:40.484Z,95447.12
2019-02-09T22:58:07.091Z,95445.38
2019-02-09T23:00:34.504Z,95439.12
2019-02-09T23:03:01.353Z,95439.73
2019-02-09T23:05:27.353Z,95443.63
2019-02-09T23:07:54.153Z,95437.49
2019-02-09T23:10:20.158Z,95435.33
2019-02-09T23:12:48.642Z,95437.66
2019-02-09T23:15:12.223Z,95449.76
2019-02-09T23:17:38.233Z,95455.39
2019-02-09T23:20:04.261Z,95449.34
2019-02-09T23:22:30.296Z,95454.25
2019-02-09T23:24:56.331Z,95451.17
2019-02-09T23:27:22.329Z,95449.04
2019-02-09T23:29:48.364Z,95449.45
2019-02-09T23:32:14.363Z,95450.45
2019-02-09T23:34:40.355Z,95451.37
2019-02-09T23:37:06.392Z,95454.56
2019-02-09T23:39:32.422Z,95446.16
2019-02-09T23:41:58.433Z,95451.48
2019-02-09T23:44:24.469Z,95449.73
2019-02-09T23:46:50.464Z,95451.98
2019-02-09T23:49:16.460Z,95456.09
2019-02-09T23:51:42.502Z,95458.83
2019-02-09T23:54:08.502Z,95461.91
2019-02-09T23:56:34.501Z,95466.83
2019-02-09T23:59:00.540Z,95460.08
